• Join FlightAware (Why Join?)
  • Login
  • US Flag 
07:34PM EDT


 

Airport Tracker/Info


-or-


 

Live Flight TrackerFlight Track Log ✈ AAL832 ✈ 25-Jun-2013 ✈ KLAX - KORD

Flight Track Log - Related Links

Times and Time Zones

All times are in EDT time to prevent confusion due to time zone crossing. See the AAL832 flight status page for this flight to view local times or setup timezone preferences in your user account.

Time Position Orientation Groundspeed Altitude Reporting Facility
EDT Latitude Longitude Course Direction KTS MPH feet Rate Location/Type
01:25PM 33.9347 -118.4417 59° Northeast 186 214 1,900  Level Los Angeles Center
01:26PM 33.9167 -118.5206 255° West 249 287 4,200 2,460 Climbing Los Angeles Center
01:27PM 34.0538 -118.1962 40° Northeast  Level FlightAware Approximate
01:27PM 33.8753 -118.5839 232° Southwest 254 292 7,100  Level Los Angeles Center
01:28PM 34.1291 -118.0751 59° Northeast  Level FlightAware Approximate
01:28PM 33.8197 -118.5375 145° Southeast 288 331 9,300  Level Los Angeles Center
01:29PM 34.1944 -117.9447 59° Northeast  Level FlightAware Approximate
01:29PM 33.8733 -118.4558 52° Northeast 321 369 11,300  Level Los Angeles Center
01:30PM 34.2596 -117.8142 59° Northeast  Level FlightAware Approximate
01:30PM 33.9492 -118.4086 27° Northeast 347 399 13,500  Level Los Angeles Center
01:31PM 34.3422 -117.6990 59° Northeast  Level FlightAware Approximate
01:31PM 34.0183 -118.2842 56° Northeast 369 425 16,000  Level Los Angeles Center
01:33PM 34.0794 -118.1753 56° Northeast 385 443 18,200 2,040 Climbing Los Angeles Center
01:34PM 34.1425 -118.0647 55° Northeast 394 453 20,300 1,800 Climbing Los Angeles Center
01:35PM 34.2064 -117.9517 56° Northeast 402 463 22,000 1,560 Climbing Los Angeles Center
01:36PM 34.2728 -117.8325 56° Northeast 420 483 23,600 1,500 Climbing Los Angeles Center
01:37PM 34.3403 -117.7111 56° Northeast 431 496 25,100 1,500 Climbing Los Angeles Center
01:38PM 34.4125 -117.5797 56° Northeast 440 506 26,800 1,380 Climbing Los Angeles Center
01:39PM 34.4825 -117.4536 56° Northeast 449 517 28,000 1,260 Climbing Los Angeles Center
01:40PM 34.5686 -117.2972 56° Northeast 465 535 29,500 1,260 Climbing Los Angeles Center
01:41PM 34.6419 -117.1642 56° Northeast 475 547 30,700 1,200 Climbing Los Angeles Center
01:42PM 34.7306 -117.0431 48° Northeast 484 557 32,000 1,200 Climbing Los Angeles Center
01:43PM 34.8169 -116.9231 49° Northeast 478 550 33,300 1,200 Climbing Los Angeles Center
01:44PM 34.9039 -116.8036 48° Northeast 476 548 34,600 1,200 Climbing Los Angeles Center
01:45PM 34.9889 -116.6847 49° Northeast 471 542 35,800 1,080 Climbing Los Angeles Center
01:46PM 35.0936 -116.5431 48° Northeast 470 541 36,900 540 Climbing Los Angeles Center
01:47PM 35.1797 -116.4269 48° Northeast 467 537 37,000  Climbing Los Angeles Center
01:48PM 35.2636 -116.3117 48° Northeast 458 527 37,000  Level Los Angeles Center
01:49PM 35.3467 -116.1933 49° Northeast 460 529 37,000  Level Los Angeles Center
01:50PM 35.4481 -116.0514 49° Northeast 463 533 37,000  Level Los Angeles Center
01:51PM 35.5344 -115.9328 48° Northeast 465 535 37,000  Level Los Angeles Center
01:52PM 35.6228 -115.8075 49° Northeast 467 537 37,000  Level Los Angeles Center
01:53PM 35.7086 -115.6869 49° Northeast 468 539 37,000  Level Los Angeles Center
01:54PM 35.7931 -115.5675 49° Northeast 467 537 37,000  Level Los Angeles Center
01:55PM 35.8764 -115.4486 49° Northeast 463 533 37,000  Level Los Angeles Center
01:56PM 35.9769 -115.3056 49° Northeast 463 533 37,000  Level Los Angeles Center
01:57PM 36.0578 -115.1878 50° Northeast 455 524 37,000  Level Los Angeles Center
01:58PM 36.1153 -115.0425 64° Northeast 476 548 37,000  Level Los Angeles Center
01:59PM 36.1608 -114.8914 69° East 473 544 37,000  Level Los Angeles Center
02:00PM 36.2064 -114.7397 70° East 473 544 37,000  Level Los Angeles Center
02:01PM 36.2617 -114.5567 69° East 475 547 37,000  Level Los Angeles Center
02:03PM 36.3069 -114.4042 70° East 474 545 37,000  Level Los Angeles Center
02:04PM 36.3528 -114.2511 70° East 474 545 37,000  Level Los Angeles Center
02:05PM 36.3994 -114.0983 69° East 475 547 37,000  Level Los Angeles Center
02:06PM 36.4436 -113.9461 70° East 471 542 37,000  Level Los Angeles Center
02:07PM 36.4894 -113.7919 70° East 475 547 37,000  Level Los Angeles Center
02:08PM 36.5308 -113.6525 70° East 476 548 37,000  Level Los Angeles Center
02:09PM 36.5844 -113.4669 70° East 477 549 37,000  Level Los Angeles Center
02:10PM 36.6294 -113.3133 70° East 476 548 37,000  Level Los Angeles Center
02:11PM 36.6825 -113.1283 70° East 476 548 37,000  Level Los Angeles Center
02:12PM 36.7264 -112.9742 70° East 476 548 37,000  Level Los Angeles Center
02:13PM 36.7711 -112.8217 70° East 473 544 37,000  Level Los Angeles Center
02:14PM 36.8139 -112.6675 71° East 473 544 37,000  Level Los Angeles Center
02:15PM 36.8556 -112.5153 71° East 469 540 37,000  Level Los Angeles Center
02:16PM 36.9081 -112.3308 70° East 472 543 37,000  Level Los Angeles Center
02:17PM 36.9511 -112.1758 71° East 474 545 37,000  Level Los Angeles Center
02:18PM 36.9944 -112.0208 71° East 475 547 37,000  Level Los Angeles Center
02:19PM 37.0358 -111.8642 72° East 476 548 37,000  Level Los Angeles Center
02:20PM 37.0761 -111.7069 72° East 476 548 37,000  Level Los Angeles Center
02:21PM 37.1103 -111.5792 71° East 478 550 37,000  Level Denver Center
02:22PM 37.1475 -111.4247 73° East 472 543 37,000  Level Denver Center
02:23PM 37.1867 -111.2675 73° East 473 544 37,000  Level Denver Center
02:24PM 37.2350 -111.0772 72° East 478 550 37,000  Level Denver Center
02:25PM 37.2747 -110.9178 73° East 480 552 37,000  Level Denver Center
02:26PM 37.3147 -110.7600 72° East 477 549 37,000  Level Denver Center
02:27PM 37.3539 -110.6008 73° East 478 550 37,000  Level Denver Center
02:28PM 37.3914 -110.4417 73° East 479 551 37,000  Level Denver Center
02:29PM 37.4306 -110.2831 73° East 477 549 37,000  Level Denver Center
02:30PM 37.4725 -110.1119 73° East 481 554 37,000  Level Denver Center
02:31PM 37.5158 -109.9303 73° East 480 552 37,000  Level Denver Center
02:32PM 37.5578 -109.7825 70° East 478 550 37,000  Level Denver Center
02:33PM 37.6053 -109.6053 71° East 478 550 37,000  Level Denver Center
02:34PM 37.6453 -109.4514 72° East 481 554 37,000  Level Denver Center
02:35PM 37.6919 -109.2758 71° East 476 548 37,000  Level Denver Center
02:36PM 37.7325 -109.1233 71° East 478 550 37,000  Level Denver Center
02:37PM 37.7725 -108.9714 72° East 477 549 37,000  Level Denver Center
02:38PM 37.8178 -108.7956 72° East 474 545 37,000  Level Denver Center
02:39PM 37.8564 -108.6447 72° East 471 542 37,000  Level Denver Center
02:40PM 37.9017 -108.4667 72° East 476 548 37,000  Level Denver Center
02:41PM 37.9411 -108.3142 72° East 476 548 37,000  Level Denver Center
02:42PM 37.9853 -108.1358 73° East 477 549 37,000  Level Denver Center
02:44PM 38.0258 -107.9794 72° East 480 552 37,000  Level Denver Center
02:45PM 38.0697 -107.7994 73° East 479 551 37,000  Level Denver Center
02:46PM 38.1072 -107.6453 73° East 479 551 37,000  Level Denver Center
02:47PM 38.1517 -107.4675 72° East 474 545 37,000  Level Denver Center
02:48PM 38.1883 -107.3144 73° East 474 545 37,000  Level Denver Center
02:49PM 38.2267 -107.1572 73° East 474 545 37,000  Level Denver Center
02:50PM 38.2656 -106.9967 73° East 476 548 37,000  Level Denver Center
02:51PM 38.3064 -106.8261 73° East 479 551 37,000  Level Denver Center
02:52PM 38.3492 -106.6467 73° East 477 549 37,000  Level Denver Center
02:53PM 38.3869 -106.4819 74° East 475 547 37,000  Level Denver Center
02:54PM 38.4250 -106.3200 73° East 477 549 37,000  Level Denver Center
02:55PM 38.4625 -106.1619 73° East 478 550 37,000  Level Denver Center
02:56PM 38.5042 -105.9811 74° East 477 549 37,000  Level Denver Center
02:57PM 38.5458 -105.8283 71° East 476 548 37,000  Level Denver Center
02:58PM 38.5947 -105.6508 71° East 475 547 37,000  Level Denver Center
02:59PM 38.6361 -105.4992 71° East 474 545 37,000  Level Denver Center
03:00PM 38.6758 -105.3467 72° East 472 543 37,000  Level Denver Center
03:01PM 38.7219 -105.1694 72° East 470 541 37,000  Level Denver Center
03:02PM 38.7628 -105.0158 71° East 474 545 37,000  Level Denver Center
03:03PM 38.8089 -104.8369 72° East 474 545 37,000  Level Denver Center
03:04PM 38.8472 -104.6844 72° East 470 541 37,000  Level Denver Center
03:05PM 38.8931 -104.5053 72° East 471 542 37,000  Level Denver Center
03:06PM 38.9331 -104.3506 72° East 473 544 37,000  Level Denver Center
03:07PM 38.9719 -104.1942 72° East 477 549 37,000  Level Denver Center
03:08PM 39.0161 -104.0147 72° East 471 542 37,000  Level Denver Center
03:09PM 39.0553 -103.8600 72° East 475 547 37,000  Level Denver Center
03:10PM 39.1000 -103.6800 72° East 471 542 37,000  Level Denver Center
03:11PM 39.1375 -103.5256 73° East 471 542 37,000  Level Denver Center
03:12PM 39.1814 -103.3433 73° East 478 550 37,000  Level Denver Center
03:13PM 39.2197 -103.1889 72° East 472 543 37,000  Level Denver Center
03:14PM 39.2567 -103.0325 73° East 476 548 37,000  Level Denver Center
03:15PM 39.3011 -102.8517 72° East 472 543 37,000  Level Denver Center
03:16PM 39.3422 -102.6789 73° East 468 539 37,000  Level Denver Center
03:17PM 39.3764 -102.5314 73° East 472 543 37,000  Level Denver Center
03:19PM 39.4186 -102.3511 73° East 470 541 37,000  Level Denver Center
03:20PM 39.4544 -102.1956 73° East 471 542 37,000  Level Denver Center
03:21PM 39.4964 -102.0136 73° East 472 543 37,000  Level Denver Center
03:22PM 39.5200 -101.8531 79° East 475 547 37,000  Level Denver Center
03:23PM 39.5469 -101.6664 79° East 475 547 37,000  Level Denver Center
03:24PM 39.5697 -101.5075 79° East 471 542 37,000  Level Denver Center
03:25PM 39.5911 -101.3458 80° East 476 548 37,000  Level Denver Center
03:26PM 39.6164 -101.1597 80° East 472 543 37,000  Level Denver Center
03:27PM 39.6383 -100.9994 80° East 472 543 37,000  Level Denver Center
03:28PM 39.6631 -100.8106 80° East 476 548 37,000  Level Denver Center
03:29PM 39.6847 -100.6500 80° East 475 547 37,000  Level Denver Center
03:30PM 39.7086 -100.4592 81° East 480 552 37,000  Level Denver Center
03:31PM 39.7297 -100.2975 80° East 478 550 37,000  Level Denver Center
03:32PM 39.7542 -100.1061 81° East 482 555 37,000  Level Denver Center
03:33PM 39.7744 -99.9433 81° East 484 557 37,000  Level Denver Center
03:34PM 39.7964 -99.7728 80° East 480 552 37,000  Level Denver Center
03:35PM 39.8167 -99.5992 81° East 486 559 37,000  Level Denver Center
03:36PM 39.8372 -99.4272 81° East 484 557 37,000  Level Denver Center
03:37PM 39.8628 -99.2192 81° East 486 559 37,000  Level Denver Center
03:38PM 39.8831 -99.0467 81° East 484 557 37,000  Level Denver Center
03:39PM 39.9025 -98.8722 82° East 487 560 37,000  Level Denver Center
03:40PM 39.9222 -98.6997 81° East 483 556 37,000  Level Denver Center
03:41PM 39.9422 -98.5278 81° East 482 555 37,000  Level Denver Center
03:43PM 39.9672 -98.2886 82° East 481 554 37,000 120 Level Minneapolis Center
03:44PM 39.9903 -98.0822 82° East 481 554 37,300 720 Climbing Minneapolis Center
03:45PM 40.0011 -97.9139 85° East 472 543 38,500 720 Climbing Minneapolis Center
03:46PM 40.0006 -97.7439 90° East 471 542 38,900 240 Climbing Minneapolis Center
03:47PM 40.0017 -97.5717 89° East 474 545 39,000  Climbing Minneapolis Center
03:48PM 40.0025 -97.3994 90° East 476 548 39,000  Level Minneapolis Center
03:49PM 40.0031 -97.2061 90° East 480 552 39,000  Level Minneapolis Center
03:50PM 40.0033 -97.0342 90° East 478 550 39,000  Level Minneapolis Center
03:51PM 40.0036 -96.8608 90° East 479 551 39,000  Level Minneapolis Center
03:52PM 40.0033 -96.6872 90° East 480 552 39,000  Level Minneapolis Center
03:53PM 40.0022 -96.5136 90° East 480 552 39,000  Level Minneapolis Center
03:54PM 40.0022 -96.3211 90° East 482 555 39,000  Level Kansas City Center
03:55PM 40.0008 -96.1486 91° East 482 555 39,000  Level Kansas City Center
03:56PM 40.0006 -95.9822 90° East 480 552 39,000  Level Kansas City Center
03:57PM 40.0111 -95.7889 86° East 478 550 39,000  Level Kansas City Center
03:58PM 40.0194 -95.6236 86° East 477 549 39,000  Level Kansas City Center
03:59PM 40.0294 -95.4297 86° East 477 549 39,000  Level Kansas City Center
04:00PM 40.0375 -95.2658 86° East 473 544 39,000  Level Kansas City Center
04:01PM 40.0453 -95.1031 86° East 470 541 39,000  Level Kansas City Center
04:02PM 40.0550 -94.9122 86° East 469 540 39,000  Level Kansas City Center
04:03PM 40.0617 -94.7497 87° East 469 540 39,000  Level Kansas City Center
04:04PM 40.0703 -94.5589 87° East 471 542 39,000  Level Kansas City Center
04:05PM 40.0769 -94.3933 87° East 474 545 39,000  Level Kansas City Center
04:06PM 40.0842 -94.2022 87° East 473 544 39,000  Level Kansas City Center
04:07PM 40.0897 -94.0286 88° East 474 545 39,000  Level Kansas City Center
04:08PM 40.0947 -93.8581 88° East 476 548 39,000  Level Kansas City Center
04:09PM 40.1275 -93.6933 75° East 472 543 39,000  Level Kansas City Center
04:10PM 40.1611 -93.5267 75° East 475 547 39,000  Level Kansas City Center
04:11PM 40.1994 -93.3261 76° East 477 549 39,000 -300 Level Kansas City Center
04:12PM 40.2317 -93.1611 76° East 475 547 38,400 -540 Descending Kansas City Center
04:13PM 40.2642 -92.9892 76° East 474 545 37,900 -540 Descending Kansas City Center
04:15PM 40.2956 -92.8283 76° East 475 547 37,300 -600 Descending Kansas City Center
04:16PM 40.3303 -92.6367 77° East 483 556 36,700 -600 Descending Kansas City Center
04:17PM 40.3592 -92.4644 78° East 486 559 36,100 -600 Descending Kansas City Center
04:18PM 40.3936 -92.3006 75° East 490 564 35,500 -660 Descending Kansas City Center
04:19PM 40.4244 -92.1297 77° East 487 560 34,800 -660 Descending Kansas City Center
04:20PM 40.4556 -91.9586 77° East 487 560 34,200 -720 Descending Chicago Center
04:21PM 40.4928 -91.7506 77° East 492 566 33,400 -600 Descending Chicago Center
04:22PM 40.5239 -91.5764 77° East 494 568 33,000 -240 Descending Chicago Center
04:23PM 40.5556 -91.4028 76° East 493 567 33,000  Level Chicago Center
04:24PM 40.6150 -91.2242 66° East 488 562 33,000  Level Chicago Center
04:25PM 40.6708 -91.0611 66° East 487 560 33,000  Level Chicago Center
04:26PM 40.7272 -90.8986 65° Northeast 487 560 33,000  Level Chicago Center
04:27PM 40.7817 -90.7350 66° East 485 558 33,000  Level Chicago Center
04:28PM 40.8369 -90.5706 66° East 488 562 33,000  Level Chicago Center
04:29PM 40.8919 -90.4069 66° East 486 559 33,000 -300 Level Chicago Center
04:30PM 40.9522 -90.2250 66° East 491 565 32,500 -1,500 Descending Chicago Center
04:31PM 41.0144 -90.0367 66° East 498 573 29,900 -2,460 Descending Chicago Center
04:32PM 41.0714 -89.8608 67° East 512 589 27,400 -2,460 Descending Chicago Center
04:33PM 41.1281 -89.6878 66° East 510 587 24,900 -2,460 Descending Chicago Center
04:34PM 41.1847 -89.5250 65° Northeast 489 563 22,400 -2,400 Descending Chicago Center
04:35PM 41.2469 -89.3733 61° Northeast 471 542 19,900 -2,280 Descending Chicago Center
04:36PM 41.3058 -89.2261 62° Northeast 457 526 17,800 -1,920 Descending Chicago Center
04:37PM 41.3611 -89.0833 63° Northeast 437 503 16,000 -1,920 Descending Chicago Center
04:38PM 41.4275 -88.9192 62° Northeast 425 489 13,900 -1,860 Descending Chicago Center
04:39PM 41.4803 -88.7897 61° Northeast 406 467 12,200 -1,620 Descending Chicago Center
04:40PM 41.5294 -88.6636 62° Northeast 389 448 10,600 -1,140 Descending Chicago Center
04:41PM 41.5750 -88.5489 62° Northeast 358 412 9,900 -300 Descending Chicago Center
04:42PM 41.6225 -88.4411 59° Northeast 340 391 10,000  Climbing Chicago Center
04:43PM 41.6925 -88.3222 52° Northeast 335 386 10,000  Level Chicago Center
04:44PM 41.7508 -88.2236 52° Northeast 338 389 10,000 -60 Level Chicago Center
04:45PM 41.8089 -88.1242 52° Northeast 338 389 9,900 -420 Descending Chicago Center
04:47PM 41.8611 -88.0306 53° Northeast 314 361 9,200 -1,020 Descending Chicago Center
04:48PM 41.8847 -87.9278 73° East 305 351 7,800 -1,140 Descending Chicago Center
04:49PM 41.8850 -87.8203 90° East 290 334 6,900 -900 Descending Chicago Center
04:50PM 41.8836 -87.6906 91° East 291 335 6,000 -1,020 Descending Chicago Center
04:51PM 41.8853 -87.5839 89° East 289 333 4,900 -540 Descending Chicago Center
04:52PM 41.8842 -87.4803 91° East 283 326 5,000  Climbing Chicago Center
04:53PM 41.8975 -87.3897 79° East 267 307 5,000 -60 Level Chicago Center
04:54PM 41.9578 -87.3967 355° North 240 276 4,900  Descending Chicago Center
04:55PM 41.9697 -87.4725 282° West 218 251 5,000  Climbing Chicago Center
04:56PM 41.9694 -87.5658 270° West 212 244 5,000  Level Chicago Center